Time;durP1;ratioP1;P1;durP2;ratioP2;P2;SDS_P1;SDS_P2;PMS_P1;PMS_P2;Temp;Humidity;BMP_temperature;BMP_pressure;BME280_temperature;BME280_humidity;BME280_pressure;Samples;Min_cycle;Max_cycle;Signal;HPM_P1;HPM_P2
2021/05/05 00:01:11;;;;;;;0.40;0.15;;;;;;;-142.37;100.00;59669.53;5056095;28;20029;-55
2021/05/05 00:03:36;;;;;;;0.30;0.20;;;;;;;-142.37;100.00;59669.53;5056268;28;20040;-55
2021/05/05 00:06:03;;;;;;;0.60;0.10;;;;;;;-142.37;100.00;59669.53;5055987;28;20021;-55
2021/05/05 00:08:28;;;;;;;0.45;0.20;;;;;;;-142.37;100.00;59669.53;5055736;28;20384;-56
2021/05/05 00:10:53;;;;;;;0.47;0.10;;;;;;;-142.37;100.00;59669.53;5056113;28;20025;-56
2021/05/05 00:13:19;;;;;;;0.30;0.30;;;;;;;-142.37;100.00;59669.53;5055779;28;20524;-56
2021/05/05 00:15:44;;;;;;;0.50;0.28;;;;;;;-142.37;100.00;59669.53;5055930;28;20020;-55
2021/05/05 00:18:10;;;;;;;0.98;0.25;;;;;;;-142.37;100.00;59669.53;5055701;28;20420;-56
2021/05/05 00:20:36;;;;;;;0.22;0.20;;;;;;;-142.37;100.00;59669.53;5055529;28;20090;-55
2021/05/05 00:23:01;;;;;;;0.40;0.20;;;;;;;-142.37;100.00;59669.53;5055791;28;20384;-55
2021/05/05 00:25:27;;;;;;;0.50;0.22;;;;;;;-142.37;100.00;59669.53;5055507;28;20032;-56
2021/05/05 00:27:53;;;;;;;0.30;0.20;;;;;;;-142.37;100.00;59669.53;5055689;28;20412;-55
2021/05/05 00:30:20;;;;;;;0.30;0.10;;;;;;;-142.37;100.00;59669.53;5055812;28;20059;-56
2021/05/05 00:32:45;;;;;;;0.17;0.13;;;;;;;-142.37;100.00;59669.53;5055584;28;20569;-55
2021/05/05 00:35:10;;;;;;;0.52;0.17;;;;;;;-142.37;100.00;59669.53;5055571;28;20025;-55
2021/05/05 00:37:36;;;;;;;0.20;0.10;;;;;;;-142.37;100.00;59669.53;5055372;28;20028;-56
2021/05/05 00:40:03;;;;;;;0.68;0.20;;;;;;;-142.37;100.00;59669.53;5055374;28;20025;-55
2021/05/05 00:42:29;;;;;;;0.20;0.03;;;;;;;-142.37;100.00;59669.53;5055209;28;20086;-56
2021/05/05 00:44:59;;;;;;;1.15;0.25;;;;;;;-142.37;100.00;59669.53;5055357;28;20427;-55
2021/05/05 00:47:25;;;;;;;0.20;0.20;;;;;;;-142.37;100.00;59669.53;5055142;28;20029;-55
2021/05/05 00:49:50;;;;;;;0.52;0.10;;;;;;;-142.37;100.00;59669.53;5055093;28;20024;-55
2021/05/05 00:52:16;;;;;;;0.90;0.30;;;;;;;-142.37;100.00;59669.53;5054859;28;20032;-55
2021/05/05 00:54:41;;;;;;;0.13;0.10;;;;;;;-142.37;100.00;59669.53;5055124;28;20033;-55
2021/05/05 00:57:07;;;;;;;0.22;0.10;;;;;;;-142.37;100.00;59669.53;5055185;28;20023;-55
2021/05/05 00:59:32;;;;;;;0.30;0.28;;;;;;;-142.37;100.00;59669.53;5054225;28;20092;-56
2021/05/05 01:01:57;;;;;;;0.20;0.10;;;;;;;-142.37;100.00;59669.53;5055034;28;20036;-56
2021/05/05 01:04:23;;;;;;;0.20;0.10;;;;;;;-142.37;100.00;59669.53;5054867;28;20158;-55
2021/05/05 01:06:48;;;;;;;0.08;0.08;;;;;;;-142.37;100.00;59669.53;5054092;28;20036;-56
2021/05/05 01:09:14;;;;;;;0.08;0.00;;;;;;;-142.37;100.00;59669.53;5053159;28;20025;-56
2021/05/05 01:11:41;;;;;;;0.43;0.20;;;;;;;-142.37;100.00;59669.53;5054557;28;20059;-55
2021/05/05 01:14:07;;;;;;;0.82;0.30;;;;;;;-142.37;100.00;59669.53;5054800;28;20025;-56
2021/05/05 01:16:32;;;;;;;1.00;0.35;;;;;;;-142.37;100.00;59669.53;5054585;28;20067;-56
2021/05/05 01:18:57;;;;;;;0.95;0.30;;;;;;;-142.37;100.00;59669.53;5054840;28;20425;-56
2021/05/05 01:21:22;;;;;;;0.22;0.10;;;;;;;-142.37;100.00;59669.53;5054260;28;20052;-56
2021/05/05 01:23:48;;;;;;;0.45;0.30;;;;;;;-142.37;100.00;59669.53;5054641;28;20028;-55
2021/05/05 01:26:13;;;;;;;0.40;0.30;;;;;;;-142.37;100.00;59669.53;5054417;28;20074;-56
2021/05/05 01:28:42;;;;;;;1.23;0.38;;;;;;;-142.37;100.00;59669.53;5054473;28;20025;-56
2021/05/05 01:31:10;;;;;;;0.70;0.30;;;;;;;-142.37;100.00;59669.53;5054355;28;20029;-55
2021/05/05 01:33:35;;;;;;;0.38;0.20;;;;;;;-142.37;100.00;59669.53;5054338;28;20356;-55
2021/05/05 01:36:01;;;;;;;0.32;0.20;;;;;;;-142.37;100.00;59669.53;5054162;28;20056;-55
2021/05/05 01:38:26;;;;;;;1.15;0.20;;;;;;;-142.37;100.00;59669.53;5053998;28;20481;-55
2021/05/05 01:40:52;;;;;;;0.47;0.22;;;;;;;-142.37;100.00;59669.53;5054307;28;20017;-55
2021/05/05 01:43:18;;;;;;;0.40;0.10;;;;;;;-142.37;100.00;59669.53;5054126;28;20028;-56
2021/05/05 01:45:43;;;;;;;0.70;0.10;;;;;;;-142.37;100.00;59669.53;5052818;28;20033;-56
2021/05/05 01:48:10;;;;;;;0.65;0.20;;;;;;;-142.37;100.00;59669.53;5054082;28;20029;-55
2021/05/05 01:50:36;;;;;;;0.30;0.10;;;;;;;-142.37;100.00;59669.53;5054318;28;20243;-56
2021/05/05 01:53:01;;;;;;;0.38;0.20;;;;;;;-142.37;100.00;59669.53;5069473;28;20116;-55
2021/05/05 01:55:27;;;;;;;0.20;0.20;;;;;;;-142.37;100.00;59669.53;5053910;28;20067;-55
2021/05/05 01:57:52;;;;;;;1.15;0.30;;;;;;;-142.37;100.00;59669.53;5052962;28;20456;-56
2021/05/05 02:00:21;;;;;;;0.30;0.10;;;;;;;-142.37;100.00;59669.53;5053704;28;20037;-56
2021/05/05 02:02:46;;;;;;;0.43;0.20;;;;;;;-142.37;100.00;59669.53;5053892;28;20384;-55
2021/05/05 02:05:12;;;;;;;0.20;0.20;;;;;;;-142.37;100.00;59669.53;5053537;28;20471;-56
2021/05/05 02:07:38;;;;;;;1.20;0.10;;;;;;;-142.37;100.00;59669.53;5054284;28;20029;-56
2021/05/05 02:10:12;;;;;;;0.47;0.30;;;;;;;-142.37;100.00;59669.53;5053696;28;20074;-56
2021/05/05 02:12:38;;;;;;;0.35;0.10;;;;;;;-142.37;100.00;59669.53;5052945;28;20025;-55
2021/05/05 02:15:05;;;;;;;0.40;0.20;;;;;;;-142.37;100.00;59669.53;5053720;28;20044;-56
2021/05/05 02:17:30;;;;;;;0.55;0.10;;;;;;;-142.37;100.00;59669.53;5053387;28;20067;-56
2021/05/05 02:19:56;;;;;;;0.57;0.10;;;;;;;-142.37;100.00;59669.53;5053359;28;20073;-56
2021/05/05 02:22:21;;;;;;;0.20;0.13;;;;;;;-142.37;100.00;59669.53;5053358;28;20112;-56
2021/05/05 02:24:46;;;;;;;0.10;0.10;;;;;;;-142.37;100.00;59669.53;5053449;28;20383;-55
2021/05/05 02:27:12;;;;;;;1.05;0.20;;;;;;;-142.37;100.00;59669.53;5053372;28;20052;-56
2021/05/05 02:29:37;;;;;;;0.30;0.20;;;;;;;-142.37;100.00;59669.53;5053580;28;20025;-55
2021/05/05 02:32:07;;;;;;;0.68;0.20;;;;;;;-142.37;100.00;59669.53;5053295;28;20035;-56
2021/05/05 02:34:33;;;;;;;0.10;0.10;;;;;;;-142.37;100.00;59669.53;5053694;28;20027;-56
2021/05/05 02:36:59;;;;;;;0.20;0.10;;;;;;;-142.37;100.00;59669.53;5053303;28;20063;-55
2021/05/05 02:39:24;;;;;;;0.38;0.15;;;;;;;-142.37;100.00;59669.53;5053114;28;20029;-56
2021/05/05 02:41:49;;;;;;;1.02;0.20;;;;;;;-142.37;100.00;59669.53;5053079;28;20021;-56
2021/05/05 02:44:16;;;;;;;0.30;0.30;;;;;;;-142.37;100.00;59669.53;5051758;28;20036;-55
2021/05/05 02:46:41;;;;;;;0.45;0.10;;;;;;;-142.37;100.00;59669.53;5053161;28;20052;-55
2021/05/05 02:49:07;;;;;;;0.30;0.15;;;;;;;-142.37;100.00;59669.53;5053150;28;20056;-55
2021/05/05 02:51:33;;;;;;;1.30;0.25;;;;;;;-142.37;100.00;59669.53;5051585;28;20017;-56
2021/05/05 02:53:59;;;;;;;0.15;0.10;;;;;;;-142.37;100.00;59669.53;5052916;28;20051;-55
2021/05/05 02:56:24;;;;;;;0.45;0.20;;;;;;;-142.37;100.00;59669.53;5052754;28;20187;-55
2021/05/05 02:58:50;;;;;;;0.38;0.38;;;;;;;-142.37;100.00;59669.53;5052821;28;20025;-56
2021/05/05 03:01:15;;;;;;;0.52;0.20;;;;;;;-142.37;100.00;59669.53;5052841;28;20037;-55
2021/05/05 03:03:40;;;;;;;1.00;0.30;;;;;;;-142.37;100.00;59669.53;5052736;28;20206;-56
2021/05/05 03:06:06;;;;;;;0.20;0.15;;;;;;;-142.37;100.00;59669.53;5052703;28;20025;-56
2021/05/05 03:08:31;;;;;;;0.38;0.13;;;;;;;-142.37;100.00;59669.53;5052536;28;20066;-55
2021/05/05 03:10:57;;;;;;;1.98;0.30;;;;;;;-142.37;100.00;59669.53;5052768;28;20029;-56
2021/05/05 03:13:23;;;;;;;0.40;0.20;;;;;;;-142.37;100.00;59669.53;5052837;28;20078;-55
2021/05/05 03:15:48;;;;;;;0.50;0.10;;;;;;;-142.37;100.00;59669.53;5052673;28;20427;-56
2021/05/05 03:18:13;;;;;;;0.80;0.20;;;;;;;-142.37;100.00;59669.53;5051207;28;20158;-55
2021/05/05 03:20:39;;;;;;;0.10;0.00;;;;;;;-142.37;100.00;59669.53;5052322;28;20071;-55
2021/05/05 03:23:04;;;;;;;0.30;0.10;;;;;;;-142.37;100.00;59669.53;5052311;28;20036;-56
2021/05/05 03:25:29;;;;;;;0.50;0.08;;;;;;;-142.37;100.00;59669.53;5052238;28;20048;-55
2021/05/05 03:27:55;;;;;;;0.38;0.10;;;;;;;-142.37;100.00;59669.53;5052535;28;20523;-56
2021/05/05 03:30:20;;;;;;;0.45;0.20;;;;;;;-142.37;100.00;59669.53;5051071;28;20483;-56
2021/05/05 03:32:46;;;;;;;0.35;0.10;;;;;;;-142.37;100.00;59669.53;5052520;28;20025;-55
2021/05/05 03:35:12;;;;;;;1.25;0.20;;;;;;;-142.37;100.00;59669.53;5052431;28;20056;-56
2021/05/05 03:37:37;;;;;;;0.45;0.10;;;;;;;-142.37;100.00;59669.53;5052359;28;20033;-55
2021/05/05 03:40:06;;;;;;;0.75;0.13;;;;;;;-142.37;100.00;59669.53;5052331;28;20385;-55
2021/05/05 03:42:31;;;;;;;0.50;0.10;;;;;;;-142.37;100.00;59669.53;5051035;28;20079;-56
2021/05/05 03:44:58;;;;;;;0.82;0.15;;;;;;;-142.37;100.00;59669.53;5052427;28;20465;-55
2021/05/05 03:47:23;;;;;;;0.55;0.17;;;;;;;-142.37;100.00;59669.53;5052136;28;20021;-56
2021/05/05 03:49:48;;;;;;;0.00;0.00;;;;;;;-142.37;100.00;59669.53;5052391;28;20484;-55
2021/05/05 03:52:13;;;;;;;0.40;0.17;;;;;;;-142.37;100.00;59669.53;5052193;28;20044;-56
2021/05/05 03:54:39;;;;;;;0.30;0.10;;;;;;;-142.37;100.00;59669.53;5052492;28;20591;-56
2021/05/05 03:57:04;;;;;;;0.47;0.20;;;;;;;-142.37;100.00;59669.53;5052303;28;20075;-55
2021/05/05 03:59:29;;;;;;;1.05;0.35;;;;;;;-142.37;100.00;59669.53;5052032;28;20021;-56
2021/05/05 04:01:55;;;;;;;0.47;0.10;;;;;;;-142.37;100.00;59669.53;5052152;28;20492;-56
2021/05/05 04:04:20;;;;;;;0.10;0.10;;;;;;;-142.37;100.00;59669.53;5052046;28;20025;-55
2021/05/05 04:06:45;;;;;;;0.10;0.10;;;;;;;-142.37;100.00;59669.53;5052099;28;20051;-55
2021/05/05 04:09:11;;;;;;;0.20;0.10;;;;;;;-142.37;100.00;59669.53;5052179;28;20016;-55
2021/05/05 04:11:36;;;;;;;0.10;0.10;;;;;;;-142.37;100.00;59669.53;5051947;28;20033;-56
2021/05/05 04:14:03;;;;;;;0.10;0.10;;;;;;;-142.37;100.00;59669.53;5052148;28;20032;-55
2021/05/05 04:16:28;;;;;;;0.40;0.10;;;;;;;-142.37;100.00;59669.53;5051896;28;20100;-55
2021/05/05 04:18:54;;;;;;;0.40;0.10;;;;;;;-142.37;100.00;59669.53;5052194;28;20063;-55
2021/05/05 04:21:20;;;;;;;0.50;0.10;;;;;;;-142.37;100.00;59669.53;5051859;28;20044;-55
2021/05/05 04:23:46;;;;;;;0.50;0.30;;;;;;;-142.37;100.00;59669.53;5051934;28;20492;-56
2021/05/05 04:26:11;;;;;;;0.47;0.30;;;;;;;-142.37;100.00;59669.53;5051860;28;20131;-56
2021/05/05 04:28:37;;;;;;;0.50;0.10;;;;;;;-142.37;100.00;59669.53;5051834;28;20078;-56
2021/05/05 04:31:03;;;;;;;0.10;0.10;;;;;;;-142.37;100.00;59669.53;5052046;28;20066;-55
2021/05/05 04:33:29;;;;;;;0.38;0.28;;;;;;;-142.37;100.00;59669.53;5051669;28;20032;-55
2021/05/05 04:35:54;;;;;;;0.55;0.25;;;;;;;-142.37;100.00;59669.53;5054007;28;20025;-55
2021/05/05 04:38:19;;;;;;;1.20;0.20;;;;;;;-142.37;100.00;59669.53;5055364;28;20029;-55
2021/05/05 04:40:45;;;;;;;0.52;0.13;;;;;;;-142.37;100.00;59669.53;5055458;28;20027;-55
2021/05/05 04:43:10;;;;;;;0.38;0.10;;;;;;;-142.37;100.00;59669.53;5055476;28;20029;-55
2021/05/05 04:45:35;;;;;;;0.20;0.10;;;;;;;-142.37;100.00;59669.53;5055139;28;20047;-55
2021/05/05 04:48:01;;;;;;;0.32;0.10;;;;;;;-142.37;100.00;59669.53;5055333;28;20028;-55
2021/05/05 04:50:27;;;;;;;0.10;0.10;;;;;;;-142.37;100.00;59669.53;5054927;28;20025;-55
2021/05/05 04:52:53;;;;;;;0.30;0.10;;;;;;;-142.37;100.00;59669.53;5055176;28;20468;-55
2021/05/05 04:55:18;;;;;;;0.38;0.10;;;;;;;-142.37;100.00;59669.53;5053835;28;20032;-56
2021/05/05 04:57:44;;;;;;;0.47;0.20;;;;;;;-142.37;100.00;59669.53;5055123;28;20033;-55
2021/05/05 05:00:10;;;;;;;0.57;0.30;;;;;;;-142.37;100.00;59669.53;5055039;28;20025;-55
2021/05/05 05:02:35;;;;;;;0.85;0.30;;;;;;;-142.37;100.00;59669.53;5054985;28;20037;-56
2021/05/05 05:05:04;;;;;;;0.65;0.10;;;;;;;-142.37;100.00;59669.53;5055093;28;20279;-55
2021/05/05 05:07:29;;;;;;;0.50;0.20;;;;;;;-142.37;100.00;59669.53;5054775;28;20028;-56
2021/05/05 05:09:55;;;;;;;0.30;0.10;;;;;;;-142.37;100.00;59669.53;5053143;28;20033;-55
2021/05/05 05:12:20;;;;;;;0.20;0.10;;;;;;;-142.37;100.00;59669.53;5054332;28;20386;-56
2021/05/05 05:14:45;;;;;;;1.75;0.20;;;;;;;-142.37;100.00;59669.53;5053885;28;20430;-56
2021/05/05 05:17:11;;;;;;;0.57;0.45;;;;;;;-142.37;100.00;59669.53;5051442;28;20021;-55
2021/05/05 05:19:36;;;;;;;0.28;0.10;;;;;;;-142.37;100.00;59669.53;5053306;28;20472;-55
2021/05/05 05:22:02;;;;;;;1.02;0.20;;;;;;;-142.37;100.00;59669.53;5053279;28;20029;-55
2021/05/05 05:24:28;;;;;;;0.17;0.10;;;;;;;-142.37;100.00;59669.53;5053295;28;20025;-55
2021/05/05 05:26:53;;;;;;;0.30;0.10;;;;;;;-142.37;100.00;59669.53;5052141;28;20392;-56
2021/05/05 05:29:19;;;;;;;0.95;0.28;;;;;;;-142.37;100.00;59669.53;5053340;28;20032;-55
2021/05/05 05:31:45;;;;;;;0.32;0.10;;;;;;;-142.37;100.00;59669.53;5052038;28;20025;-55
2021/05/05 05:34:10;;;;;;;0.40;0.10;;;;;;;-142.37;100.00;59669.53;5053263;28;20318;-55
2021/05/05 05:36:36;;;;;;;0.25;0.10;;;;;;;-142.37;100.00;59669.53;5052869;28;20512;-55
2021/05/05 05:39:01;;;;;;;0.55;0.20;;;;;;;-142.37;100.00;59669.53;5053854;28;20040;-55
2021/05/05 05:41:27;;;;;;;0.82;0.25;;;;;;;-142.37;100.00;59669.53;5053476;28;20070;-55
2021/05/05 05:43:53;;;;;;;0.52;0.10;;;;;;;-142.37;100.00;59669.53;5054086;28;20021;-55
2021/05/05 05:46:18;;;;;;;0.15;0.15;;;;;;;-142.37;100.00;59669.53;5053482;28;20365;-55
2021/05/05 05:48:43;;;;;;;0.28;0.15;;;;;;;-142.37;100.00;59669.53;5053616;28;20082;-55
2021/05/05 05:51:09;;;;;;;0.20;0.17;;;;;;;-142.37;100.00;59669.53;5053686;28;20456;-55
2021/05/05 05:53:34;;;;;;;0.55;0.10;;;;;;;-142.37;100.00;59669.53;5053994;28;20071;-55
2021/05/05 05:55:59;;;;;;;0.10;0.10;;;;;;;-142.37;100.00;59669.53;5054375;28;20043;-55
2021/05/05 05:58:25;;;;;;;0.65;0.30;;;;;;;-142.37;100.00;59669.53;5053828;28;20028;-55
2021/05/05 06:00:50;;;;;;;0.20;0.20;;;;;;;-142.37;100.00;59669.53;5053697;28;20024;-55
2021/05/05 06:03:15;;;;;;;0.32;0.15;;;;;;;-142.37;100.00;59669.53;5053488;28;20029;-56
2021/05/05 06:05:40;;;;;;;0.50;0.20;;;;;;;-142.37;100.00;59669.53;5053161;28;20472;-55
2021/05/05 06:08:06;;;;;;;0.30;0.17;;;;;;;-142.37;100.00;59669.53;5053485;28;20033;-56
2021/05/05 06:10:32;;;;;;;0.65;0.10;;;;;;;-142.37;100.00;59669.53;5053097;28;20476;-55
2021/05/05 06:12:57;;;;;;;0.32;0.20;;;;;;;-142.37;100.00;59669.53;5053282;28;20028;-55
2021/05/05 06:15:23;;;;;;;0.10;0.10;;;;;;;-142.37;100.00;59669.53;5051625;28;20117;-56
2021/05/05 06:17:49;;;;;;;0.50;0.10;;;;;;;-142.37;100.00;59669.53;5052927;28;20047;-55
2021/05/05 06:20:15;;;;;;;0.65;0.38;;;;;;;-142.37;100.00;59669.53;5052367;28;20083;-55
2021/05/05 06:22:41;;;;;;;0.32;0.30;;;;;;;-142.37;100.00;59669.53;5053307;28;20028;-55
2021/05/05 06:25:08;;;;;;;0.38;0.20;;;;;;;-142.37;100.00;59669.53;5052989;28;20033;-55
2021/05/05 06:27:34;;;;;;;0.40;0.10;;;;;;;-142.37;100.00;59669.53;5052096;28;20420;-55
2021/05/05 06:30:00;;;;;;;1.52;0.15;;;;;;;-142.37;100.00;59669.53;5053430;28;20048;-55
2021/05/05 06:32:25;;;;;;;0.43;0.03;;;;;;;-142.37;100.00;59669.53;5049631;28;20071;-56
2021/05/05 06:34:54;;;;;;;0.43;0.13;;;;;;;-142.37;100.00;59669.53;5046846;28;20411;-57
2021/05/05 06:37:20;;;;;;;0.75;0.22;;;;;;;-142.37;100.00;59669.53;5053293;28;20510;-57
2021/05/05 06:39:45;;;;;;;0.00;0.00;;;;;;;-142.37;100.00;59669.53;5053459;28;20025;-57
2021/05/05 06:42:11;;;;;;;0.10;0.10;;;;;;;-142.37;100.00;59669.53;5051656;28;20035;-57
2021/05/05 06:44:36;;;;;;;0.63;0.10;;;;;;;-142.37;100.00;59669.53;5052583;28;20368;-57
2021/05/05 06:47:02;;;;;;;0.30;0.20;;;;;;;-142.37;100.00;59669.53;5051728;28;20033;-57
2021/05/05 06:49:29;;;;;;;0.30;0.10;;;;;;;-142.37;100.00;59669.53;5051537;28;20376;-56
2021/05/05 06:51:54;;;;;;;0.20;0.10;;;;;;;-142.37;100.00;59669.53;5050721;28;20036;-58
2021/05/05 06:54:19;;;;;;;0.47;0.10;;;;;;;-142.37;100.00;59669.53;5051076;28;20036;-57
2021/05/05 06:56:45;;;;;;;0.22;0.10;;;;;;;-142.37;100.00;59669.53;5052051;28;20033;-57
2021/05/05 06:59:10;;;;;;;1.30;0.20;;;;;;;-142.37;100.00;59669.53;5050974;28;20052;-57
2021/05/05 07:01:37;;;;;;;0.00;0.00;;;;;;;-142.37;100.00;59669.53;5051228;28;20049;-59
2021/05/05 07:04:05;;;;;;;0.70;0.20;;;;;;;-142.37;100.00;59669.53;5051334;28;20029;-58
2021/05/05 07:06:30;;;;;;;0.73;0.50;;;;;;;-142.37;100.00;59669.53;5051547;28;20028;-57
2021/05/05 07:08:56;;;;;;;1.65;0.20;;;;;;;-142.37;100.00;59669.53;5052029;28;20043;-58
2021/05/05 07:11:21;;;;;;;0.52;0.10;;;;;;;-142.37;100.00;59669.53;5052143;28;20021;-58
2021/05/05 07:13:47;;;;;;;0.20;0.15;;;;;;;-142.37;100.00;59669.53;5046639;28;20047;-58
2021/05/05 07:16:12;;;;;;;0.82;0.10;;;;;;;-142.37;100.00;59669.53;5044358;28;20051;-57
2021/05/05 07:18:38;;;;;;;0.10;0.10;;;;;;;-142.37;100.00;59669.53;5045913;28;20453;-57
2021/05/05 07:21:03;;;;;;;0.80;0.35;;;;;;;-142.37;100.00;59669.53;5051746;28;20105;-57
2021/05/05 07:23:29;;;;;;;0.30;0.10;;;;;;;-142.37;100.00;59669.53;5051011;28;20021;-58
2021/05/05 07:25:54;;;;;;;0.20;0.20;;;;;;;-142.37;100.00;59669.53;5053149;28;20060;-59
2021/05/05 07:28:19;;;;;;;0.45;0.30;;;;;;;-142.37;100.00;59669.53;5053228;28;20029;-58
2021/05/05 07:30:45;;;;;;;0.10;0.10;;;;;;;-142.37;100.00;59669.53;5051496;28;20053;-57
2021/05/05 07:33:13;;;;;;;0.88;0.22;;;;;;;-142.37;100.00;59669.53;5051787;28;20078;-57
2021/05/05 07:35:38;;;;;;;0.35;0.10;;;;;;;-142.37;100.00;59669.53;5051894;28;20033;-57
2021/05/05 07:38:22;;;;;;;1.77;0.40;;;;;;;-142.37;100.00;59669.53;5051669;28;20032;-57
2021/05/05 07:41:24;;;;;;;1.60;1.50;;;;;;;-142.37;100.00;59669.53;5051922;28;20079;-58
2021/05/05 07:46:22;;;;;;;5.60;4.25;;;;;;;-142.37;100.00;59669.53;5051953;28;20043;-57
2021/05/05 07:48:55;;;;;;;5.43;4.30;;;;;;;-142.37;100.00;59669.53;5051671;28;20087;-57
2021/05/05 07:51:22;;;;;;;5.57;4.90;;;;;;;-142.37;100.00;59669.53;5051391;28;20472;-57
2021/05/05 07:53:48;;;;;;;5.57;4.25;;;;;;;-142.37;100.00;59669.53;5051591;28;20041;-59
2021/05/05 07:56:14;;;;;;;5.22;4.30;;;;;;;-142.37;100.00;59669.53;5050206;28;20732;-57
2021/05/05 07:58:42;;;;;;;5.40;4.22;;;;;;;-142.37;100.00;59669.53;5051311;28;20061;-58
2021/05/05 08:01:08;;;;;;;3.33;3.03;;;;;;;-142.37;100.00;59669.53;5051995;28;20487;-57
2021/05/05 08:03:33;;;;;;;4.55;3.65;;;;;;;-142.37;100.00;59669.53;5050891;28;20024;-57
2021/05/05 08:05:59;;;;;;;3.83;3.50;;;;;;;-142.37;100.00;59669.53;5051198;28;20033;-58
2021/05/05 08:08:24;;;;;;;3.17;2.85;;;;;;;-142.37;100.00;59669.53;5050851;28;20021;-57
2021/05/05 08:10:49;;;;;;;2.58;2.30;;;;;;;-142.37;100.00;59669.53;5053778;28;20100;-58
2021/05/05 08:13:15;;;;;;;2.78;2.25;;;;;;;-142.37;100.00;59669.53;5054705;28;20032;-58
2021/05/05 08:15:40;;;;;;;2.05;1.85;;;;;;;-142.37;100.00;59669.53;5050765;28;20522;-58
2021/05/05 08:18:07;;;;;;;2.13;1.92;;;;;;;-142.37;100.00;59669.53;5055109;28;20033;-58
2021/05/05 08:20:34;;;;;;;1.80;1.70;;;;;;;-142.37;100.00;59669.53;5055391;28;20056;-57
2021/05/05 08:23:02;;;;;;;1.60;1.50;;;;;;;-142.37;100.00;59669.53;5055823;28;20522;-58
2021/05/05 08:25:27;;;;;;;1.35;1.25;;;;;;;-142.37;100.00;59669.53;5054543;28;20028;-58
2021/05/05 08:27:52;;;;;;;3.70;1.50;;;;;;;-142.37;100.00;59669.53;5041548;28;20063;-57
2021/05/05 08:30:18;;;;;;;1.17;1.08;;;;;;;-142.37;100.00;59669.53;5035700;28;20384;-58
2021/05/05 08:32:45;;;;;;;1.30;1.00;;;;;;;-142.37;100.00;59669.53;5054352;28;20029;-58
2021/05/05 08:35:11;;;;;;;1.08;1.00;;;;;;;-142.37;100.00;59669.53;5054935;28;20549;-57
2021/05/05 08:37:36;;;;;;;0.80;0.80;;;;;;;-142.37;100.00;59669.53;5055540;28;20037;-58
2021/05/05 08:40:03;;;;;;;4.95;1.10;;;;;;;-142.37;100.00;59669.53;5055510;28;20108;-57
2021/05/05 08:42:28;;;;;;;0.82;0.70;;;;;;;-142.37;100.00;59669.53;5055343;28;20033;-58
2021/05/05 08:44:54;;;;;;;1.20;0.75;;;;;;;-142.37;100.00;59669.53;5055547;28;20127;-58
2021/05/05 08:47:20;;;;;;;1.80;0.80;;;;;;;-142.37;100.00;59669.53;5054979;28;20040;-57
2021/05/05 08:49:46;;;;;;;2.15;0.90;;;;;;;-142.37;100.00;59669.53;5054631;28;20024;-58
2021/05/05 08:52:11;;;;;;;0.50;0.50;;;;;;;-142.37;100.00;59669.53;5053899;28;20036;-57
2021/05/05 08:54:36;;;;;;;0.57;0.50;;;;;;;-142.37;100.00;59669.53;5054670;28;20472;-58
2021/05/05 08:57:03;;;;;;;0.73;0.57;;;;;;;-142.37;100.00;59669.53;5055270;28;20147;-58
2021/05/05 08:59:29;;;;;;;0.55;0.30;;;;;;;-142.37;100.00;59669.53;5055072;28;20025;-57
2021/05/05 09:01:54;;;;;;;0.20;0.20;;;;;;;-142.37;100.00;59669.53;5055176;28;20021;-58
2021/05/05 09:04:20;;;;;;;0.75;0.40;;;;;;;-142.37;100.00;59669.53;5055013;28;20025;-57
2021/05/05 09:06:52;;;;;;;1.25;0.30;;;;;;;-142.37;100.00;59669.53;5054933;28;20022;-58
2021/05/05 09:09:34;;;;;;;0.60;0.30;;;;;;;-142.37;100.00;59669.53;5054287;28;20083;-58
2021/05/05 09:12:10;;;;;;;0.40;0.40;;;;;;;-142.37;100.00;59669.53;5055322;28;20021;-57
2021/05/05 09:14:36;;;;;;;0.63;0.30;;;;;;;-142.37;100.00;59669.53;5054964;28;20016;-58
2021/05/05 09:17:01;;;;;;;1.20;0.20;;;;;;;-142.37;100.00;59669.53;5054931;28;20461;-57
2021/05/05 09:19:26;;;;;;;0.30;0.30;;;;;;;-142.37;100.00;59669.53;5053575;28;20469;-58
2021/05/05 09:21:52;;;;;;;0.90;0.30;;;;;;;-142.37;100.00;59669.53;5054049;28;20049;-57
2021/05/05 09:24:33;;;;;;;0.50;0.40;;;;;;;-142.37;100.00;59669.53;5054556;28;20067;-57
2021/05/05 09:27:04;;;;;;;0.20;0.20;;;;;;;-142.37;100.00;59669.53;5053420;28;20029;-58
2021/05/05 09:29:49;;;;;;;0.10;0.10;;;;;;;-142.37;100.00;59669.53;5053081;28;20029;-57
2021/05/05 09:32:17;;;;;;;0.20;0.20;;;;;;;-142.37;100.00;59669.53;5053663;28;20025;-58
2021/05/05 09:34:43;;;;;;;1.27;0.30;;;;;;;-142.37;100.00;59669.53;5051873;28;20418;-58
2021/05/05 09:37:10;;;;;;;0.60;0.20;;;;;;;-142.37;100.00;59669.53;5053973;28;20027;-58
2021/05/05 09:39:39;;;;;;;0.47;0.25;;;;;;;-142.37;100.00;59669.53;5048741;28;20247;-58
2021/05/05 09:42:25;;;;;;;0.08;0.08;;;;;;;-142.37;100.00;59669.53;5053669;28;20041;-58
2021/05/05 09:45:02;;;;;;;2.58;0.20;;;;;;;-142.37;100.00;59669.53;5054026;28;20514;-58
2021/05/05 09:47:56;;;;;;;0.60;0.15;;;;;;;-142.37;100.00;59669.53;5053918;28;20029;-57
2021/05/05 09:50:26;;;;;;;0.28;0.20;;;;;;;-142.37;100.00;59669.53;5053883;28;20116;-58
2021/05/05 09:53:11;;;;;;;0.80;0.20;;;;;;;-142.37;100.00;59669.53;5052816;28;20029;-58
2021/05/05 09:55:37;;;;;;;0.10;0.10;;;;;;;-142.37;100.00;59669.53;5053929;28;20408;-58
2021/05/05 09:58:25;;;;;;;0.28;0.10;;;;;;;-142.37;100.00;59669.53;5053514;28;20036;-58
2021/05/05 10:01:05;;;;;;;0.30;0.20;;;;;;;-142.37;100.00;59669.53;5053797;28;20515;-57
2021/05/05 10:03:50;;;;;;;0.10;0.10;;;;;;;-142.37;100.00;59669.53;5053652;28;20079;-59
2021/05/05 10:06:23;;;;;;;0.38;0.20;;;;;;;-142.37;100.00;59669.53;5053061;28;20048;-58
2021/05/05 10:08:51;;;;;;;0.40;0.20;;;;;;;-142.37;100.00;59669.53;5052081;28;20052;-58
2021/05/05 10:11:20;;;;;;;0.47;0.10;;;;;;;-142.37;100.00;59669.53;5053691;28;20035;-58
2021/05/05 10:13:48;;;;;;;0.57;0.20;;;;;;;-142.37;100.00;59669.53;5053456;28;20021;-58
2021/05/05 10:16:14;;;;;;;0.20;0.15;;;;;;;-142.37;100.00;59669.53;5053647;28;20029;-58
2021/05/05 10:18:42;;;;;;;1.08;0.40;;;;;;;-142.37;100.00;59669.53;5053626;28;20024;-58
2021/05/05 10:21:07;;;;;;;0.08;0.08;;;;;;;-142.37;100.00;59669.53;5052671;28;20129;-58
2021/05/05 10:23:34;;;;;;;0.57;0.20;;;;;;;-142.37;100.00;59669.53;5051957;28;20081;-58
2021/05/05 10:25:59;;;;;;;0.32;0.20;;;;;;;-142.37;100.00;59669.53;5053070;28;20033;-58
2021/05/05 10:28:25;;;;;;;0.57;0.10;;;;;;;-142.37;100.00;59669.53;5053119;28;20053;-58
2021/05/05 10:30:51;;;;;;;1.17;0.30;;;;;;;-142.37;100.00;59669.53;5053453;28;20108;-57
2021/05/05 10:33:20;;;;;;;0.80;0.30;;;;;;;-142.37;100.00;59669.53;5050889;28;20067;-58
2021/05/05 10:35:46;;;;;;;0.28;0.10;;;;;;;-142.37;100.00;59669.53;5051052;28;20526;-58
2021/05/05 10:38:35;;;;;;;0.50;0.20;;;;;;;-142.37;100.00;59669.53;5052982;28;20033;-58
2021/05/05 10:41:12;;;;;;;0.40;0.13;;;;;;;-142.37;100.00;59669.53;5043871;28;20040;-58
2021/05/05 10:43:54;;;;;;;1.20;0.10;;;;;;;-142.37;100.00;59669.53;5052210;28;20084;-57
2021/05/05 10:46:45;;;;;;;0.63;0.20;;;;;;;-142.37;100.00;59669.53;5049506;28;20460;-58
2021/05/05 10:49:17;;;;;;;0.43;0.03;;;;;;;-142.37;100.00;59669.53;5052723;28;20033;-57
2021/05/05 10:51:45;;;;;;;0.68;0.10;;;;;;;-142.37;100.00;59669.53;5051054;28;20404;-58
2021/05/05 10:54:51;;;;;;;0.20;0.10;;;;;;;-142.37;100.00;59669.53;5051848;28;20485;-58
2021/05/05 10:57:17;;;;;;;0.10;0.10;;;;;;;-142.37;100.00;59669.53;5049621;28;20500;-58
2021/05/05 11:00:02;;;;;;;0.75;0.30;;;;;;;-142.37;100.00;59669.53;5051698;28;20495;-58
2021/05/05 11:05:11;;;;;;;0.40;0.20;;;;;;;-142.37;100.00;59669.53;5050554;28;20427;-58
2021/05/05 11:07:56;;;;;;;0.45;0.10;;;;;;;-142.37;100.00;59669.53;5051565;28;20239;-57
2021/05/05 11:10:45;;;;;;;0.63;0.10;;;;;;;-142.37;100.00;59669.53;5051861;28;20076;-58
2021/05/05 11:13:21;;;;;;;0.55;0.10;;;;;;;-142.37;100.00;59669.53;4983484;28;20117;-58
2021/05/05 11:15:52;;;;;;;0.32;0.25;;;;;;;-142.37;100.00;59669.53;4977024;28;20030;-58